createdAt,value
2019-05-07T00:01:18.733Z,8.40
2019-05-07T00:03:47.946Z,8.30
2019-05-07T00:06:17.193Z,8.30
2019-05-07T00:08:46.417Z,8.73
2019-05-07T00:11:15.655Z,8.80
2019-05-07T00:13:44.857Z,9.27
2019-05-07T00:16:14.072Z,9.73
2019-05-07T00:18:43.288Z,9.73
2019-05-07T00:21:12.790Z,9.20
2019-05-07T00:23:43.219Z,10.70
2019-05-07T00:26:13.256Z,10.30
2019-05-07T00:28:40.400Z,9.23
2019-05-07T00:31:09.581Z,10.47
2019-05-07T00:33:38.806Z,10.67
2019-05-07T00:36:18.783Z,10.13
2019-05-07T00:38:52.052Z,9.70
2019-05-07T00:41:31.906Z,10.97
2019-05-07T00:44:00.306Z,10.43
2019-05-07T00:46:32.153Z,10.83
2019-05-07T00:49:02.359Z,11.23
2019-05-07T00:51:39.115Z,11.33
2019-05-07T00:54:08.427Z,10.13
2019-05-07T00:56:37.719Z,8.97
2019-05-07T00:59:06.925Z,8.73
2019-05-07T01:01:36.132Z,9.30
2019-05-07T01:04:05.378Z,9.50
2019-05-07T01:06:34.650Z,8.27
2019-05-07T01:09:05.325Z,8.33
2019-05-07T01:11:34.651Z,8.20
2019-05-07T01:14:03.993Z,8.03
2019-05-07T01:16:33.242Z,8.50
2019-05-07T01:19:02.471Z,8.60
2019-05-07T01:21:32.503Z,8.77
2019-05-07T01:24:03.211Z,7.83
2019-05-07T01:26:30.329Z,9.57
2019-05-07T01:28:59.569Z,8.60
2019-05-07T01:31:30.318Z,8.67
2019-05-07T01:34:15.724Z,9.70
2019-05-07T01:36:44.954Z,9.27
2019-05-07T01:39:14.183Z,10.67
2019-05-07T01:41:43.463Z,10.40
2019-05-07T01:44:12.911Z,11.33
2019-05-07T01:46:42.279Z,11.50
2019-05-07T01:49:12.499Z,11.50
2019-05-07T01:51:42.297Z,10.87
2019-05-07T01:54:09.778Z,12.13
2019-05-07T01:56:38.979Z,12.77
2019-05-07T01:59:08.216Z,12.10
2019-05-07T02:01:37.473Z,12.97
2019-05-07T02:04:28.897Z,12.67
2019-05-07T02:07:15.999Z,13.40
2019-05-07T02:09:52.320Z,12.47
2019-05-07T02:12:25.775Z,13.33
2019-05-07T02:14:55.008Z,14.77
2019-05-07T02:17:24.265Z,14.43
2019-05-07T02:19:53.548Z,14.00
2019-05-07T02:22:22.835Z,14.07
2019-05-07T02:24:52.528Z,14.60
2019-05-07T02:27:22.138Z,15.20
2019-05-07T02:29:52.931Z,14.97
2019-05-07T02:32:20.177Z,13.70
2019-05-07T02:34:49.409Z,14.50
2019-05-07T02:37:23.178Z,14.47
2019-05-07T02:40:00.132Z,14.67
2019-05-07T02:42:29.338Z,14.87
2019-05-07T02:45:17.674Z,15.33
2019-05-07T02:47:46.909Z,15.63
2019-05-07T02:50:23.243Z,15.57
2019-05-07T02:53:04.106Z,16.43
2019-05-07T02:55:52.982Z,16.00
2019-05-07T02:58:24.068Z,16.67
2019-05-07T03:00:53.171Z,16.33
2019-05-07T03:03:20.018Z,16.00
2019-05-07T03:05:49.321Z,17.50
2019-05-07T03:08:18.585Z,17.13
2019-05-07T03:10:47.799Z,17.67
2019-05-07T03:13:17.078Z,16.60
2019-05-07T03:15:46.418Z,16.60
2019-05-07T03:18:18.971Z,17.77
2019-05-07T03:20:48.231Z,17.73
2019-05-07T03:23:18.845Z,17.23
2019-05-07T03:25:57.074Z,18.13
2019-05-07T03:28:26.260Z,18.80
2019-05-07T03:31:05.693Z,18.80
2019-05-07T03:33:37.583Z,18.07
2019-05-07T03:36:07.895Z,18.20
2019-05-07T03:38:36.032Z,18.83
2019-05-07T03:41:05.259Z,18.30
2019-05-07T03:43:34.718Z,18.50
2019-05-07T03:46:15.037Z,17.73
2019-05-07T03:48:45.809Z,18.27
2019-05-07T03:51:15.101Z,17.60
2019-05-07T03:53:44.460Z,18.63
2019-05-07T03:56:13.656Z,16.57
2019-05-07T03:58:44.194Z,17.97
2019-05-07T04:01:13.849Z,18.17
2019-05-07T04:03:44.544Z,17.47
2019-05-07T04:06:12.763Z,16.80
2019-05-07T04:08:43.186Z,18.50
2019-05-07T04:11:13.414Z,16.27
2019-05-07T04:13:39.585Z,18.50
2019-05-07T04:16:08.830Z,17.13
2019-05-07T04:18:38.028Z,16.73
2019-05-07T04:21:07.331Z,18.00
2019-05-07T04:23:36.585Z,16.77
2019-05-07T04:26:18.258Z,17.40
2019-05-07T04:28:55.552Z,16.80
2019-05-07T04:31:24.771Z,17.40
2019-05-07T04:33:54.257Z,17.17
2019-05-07T04:36:26.534Z,16.33
2019-05-07T04:38:55.814Z,17.63
2019-05-07T04:41:25.086Z,18.10
2019-05-07T04:43:54.461Z,16.30
2019-05-07T04:46:23.884Z,16.77
2019-05-07T04:48:53.131Z,17.77
2019-05-07T04:51:27.364Z,18.03
2019-05-07T04:53:56.607Z,16.33
2019-05-07T04:56:25.804Z,17.13
2019-05-07T04:58:55.023Z,15.87
2019-05-07T05:01:24.238Z,15.70
2019-05-07T05:03:54.215Z,16.20
2019-05-07T05:06:24.152Z,16.00
2019-05-07T05:08:55.841Z,16.33
2019-05-07T05:11:23.756Z,15.50
2019-05-07T05:13:52.944Z,19.03
2019-05-07T05:16:26.724Z,16.53
2019-05-07T05:18:55.965Z,15.03
2019-05-07T05:21:47.279Z,15.33
2019-05-07T05:24:22.186Z,15.00
2019-05-07T05:26:49.555Z,14.90
2019-05-07T05:29:18.791Z,15.00
2019-05-07T05:31:48.015Z,13.63
2019-05-07T05:34:17.414Z,13.80
2019-05-07T05:36:49.386Z,13.77
2019-05-07T05:39:18.574Z,13.83
2019-05-07T05:41:51.812Z,13.43
2019-05-07T05:44:23.533Z,13.77
2019-05-07T05:46:52.783Z,13.03
2019-05-07T05:49:22.985Z,12.90
2019-05-07T05:52:16.175Z,11.47
2019-05-07T05:55:04.525Z,11.30
2019-05-07T05:57:48.624Z,10.63
2019-05-07T06:00:35.719Z,11.00
2019-05-07T06:03:39.197Z,11.13
2019-05-07T06:06:32.580Z,10.53
2019-05-07T06:09:09.690Z,10.90
2019-05-07T06:11:58.009Z,9.83
2019-05-07T06:14:48.915Z,11.00
2019-05-07T06:17:43.091Z,9.80
2019-05-07T06:20:34.484Z,9.83
2019-05-07T06:23:32.994Z,9.10
2019-05-07T06:26:04.775Z,9.93
2019-05-07T06:28:30.012Z,9.00
2019-05-07T06:30:59.370Z,9.10
2019-05-07T06:33:28.657Z,9.40
2019-05-07T06:35:57.863Z,7.80
2019-05-07T06:38:27.101Z,8.10
2019-05-07T06:41:06.144Z,7.27
2019-05-07T06:43:54.467Z,7.90
2019-05-07T06:46:23.704Z,7.43
2019-05-07T06:48:52.904Z,6.60
2019-05-07T06:51:22.348Z,6.17
2019-05-07T06:53:51.908Z,6.97
2019-05-07T06:56:22.909Z,6.77
2019-05-07T06:59:07.731Z,6.90
2019-05-07T07:02:05.792Z,7.65
2019-05-07T07:04:52.104Z,4.40
2019-05-07T07:07:42.153Z,4.17
2019-05-07T07:10:15.561Z,4.30
2019-05-07T07:12:44.801Z,4.50
2019-05-07T07:15:14.020Z,5.60
2019-05-07T07:17:43.231Z,4.30
2019-05-07T07:20:12.851Z,4.10
2019-05-07T07:22:42.565Z,4.40
2019-05-07T07:25:11.869Z,4.17
2019-05-07T07:27:42.807Z,3.60
2019-05-07T07:30:24.609Z,3.20
2019-05-07T07:32:54.004Z,2.97
2019-05-07T07:35:23.224Z,2.80
2019-05-07T07:37:53.066Z,3.43
2019-05-07T07:40:42.186Z,3.67
2019-05-07T07:43:09.740Z,2.97
2019-05-07T07:45:38.983Z,3.27
2019-05-07T07:48:08.164Z,2.47
2019-05-07T07:50:37.459Z,2.50
2019-05-07T07:53:06.658Z,2.07
2019-05-07T07:55:39.536Z,2.13
2019-05-07T07:58:13.839Z,2.50
2019-05-07T08:01:02.824Z,2.60
2019-05-07T08:03:32.968Z,2.40
2019-05-07T08:06:02.208Z,2.30
2019-05-07T08:08:31.481Z,2.50
2019-05-07T08:10:59.004Z,2.10
2019-05-07T08:13:28.195Z,2.00
2019-05-07T08:15:57.399Z,2.60
2019-05-07T08:18:26.718Z,1.53
2019-05-07T08:20:55.842Z,2.30
2019-05-07T08:23:25.019Z,1.97
2019-05-07T08:25:54.383Z,1.80
2019-05-07T08:28:23.581Z,2.87
2019-05-07T08:31:02.926Z,2.00
2019-05-07T08:33:33.368Z,2.50
2019-05-07T08:36:14.814Z,2.07
2019-05-07T08:38:55.781Z,1.90
2019-05-07T08:41:25.125Z,3.27
2019-05-07T08:44:11.273Z,1.70
2019-05-07T08:46:38.247Z,1.40
2019-05-07T08:49:08.043Z,1.77
2019-05-07T08:51:37.262Z,1.53
2019-05-07T08:54:08.007Z,1.60
2019-05-07T08:56:37.215Z,1.80
2019-05-07T08:59:06.447Z,1.63
2019-05-07T09:01:35.721Z,2.03
2019-05-07T09:04:04.919Z,1.70
2019-05-07T09:06:34.148Z,1.67
2019-05-07T09:09:08.381Z,2.17
2019-05-07T09:11:37.657Z,1.60
2019-05-07T09:14:06.975Z,1.70
2019-05-07T09:16:36.161Z,1.50
2019-05-07T09:19:05.376Z,1.83
2019-05-07T09:21:36.542Z,1.50
2019-05-07T09:24:06.041Z,1.40
2019-05-07T09:26:54.361Z,1.80
2019-05-07T09:29:45.923Z,1.23
2019-05-07T09:32:32.476Z,1.60
2019-05-07T09:35:02.292Z,1.27
2019-05-07T09:37:29.601Z,1.40
2019-05-07T09:39:58.833Z,1.50
2019-05-07T09:42:28.042Z,1.60
2019-05-07T09:44:57.263Z,1.57
2019-05-07T09:47:26.464Z,1.53
2019-05-07T09:50:04.568Z,1.90
2019-05-07T09:52:24.909Z,1.40
2019-05-07T09:54:54.157Z,1.90
2019-05-07T09:57:30.951Z,1.53
2019-05-07T09:59:53.236Z,1.93
2019-05-07T10:02:22.727Z,1.70
2019-05-07T10:04:52.662Z,1.90
2019-05-07T10:07:22.283Z,1.50
2019-05-07T10:09:52.064Z,1.60
2019-05-07T10:12:24.225Z,1.37
2019-05-07T10:14:53.442Z,2.20
2019-05-07T10:17:44.735Z,1.50
2019-05-07T10:20:21.545Z,1.50
2019-05-07T10:22:43.171Z,1.37
2019-05-07T10:25:12.407Z,1.90
2019-05-07T10:27:41.952Z,1.70
2019-05-07T10:30:12.839Z,1.67
2019-05-07T10:32:41.934Z,1.73
2019-05-07T10:35:09.408Z,1.80
2019-05-07T10:37:38.683Z,1.33
2019-05-07T10:40:07.923Z,1.80
2019-05-07T10:42:37.143Z,1.77
2019-05-07T10:45:13.179Z,1.77
2019-05-07T10:47:54.556Z,1.90
2019-05-07T10:50:35.609Z,2.00
2019-05-07T10:52:57.360Z,1.67
2019-05-07T10:55:26.591Z,1.80
2019-05-07T10:57:55.817Z,1.70
2019-05-07T11:00:25.176Z,1.70
2019-05-07T11:02:54.403Z,2.17
2019-05-07T11:05:23.626Z,2.10
2019-05-07T11:07:53.863Z,2.00
2019-05-07T11:10:22.163Z,1.80
2019-05-07T11:12:51.791Z,1.80
2019-05-07T11:15:22.068Z,1.57
2019-05-07T11:17:53.948Z,1.60
2019-05-07T11:20:23.147Z,1.97
2019-05-07T11:22:52.474Z,2.10
2019-05-07T11:25:22.520Z,2.00
2019-05-07T11:27:52.391Z,2.10
2019-05-07T11:30:20.149Z,2.07
2019-05-07T11:32:49.357Z,2.13
2019-05-07T11:35:18.563Z,1.60
2019-05-07T11:37:47.764Z,1.90
2019-05-07T11:40:19.883Z,1.97
2019-05-07T11:43:05.721Z,2.10
2019-05-07T11:45:45.147Z,1.93
2019-05-07T11:48:14.357Z,2.17
2019-05-07T11:51:03.329Z,1.50
2019-05-07T11:53:25.879Z,1.70
2019-05-07T11:55:55.224Z,1.90
2019-05-07T11:58:24.438Z,1.73
2019-05-07T12:01:03.653Z,1.40
2019-05-07T12:03:28.953Z,1.70
2019-05-07T12:05:58.207Z,1.87
2019-05-07T12:08:41.001Z,1.70
2019-05-07T12:10:58.212Z,1.87
2019-05-07T12:13:27.503Z,2.03
2019-05-07T12:15:56.729Z,2.00
2019-05-07T12:18:26.183Z,2.03
2019-05-07T12:20:55.670Z,2.23
2019-05-07T12:23:25.065Z,1.90
2019-05-07T12:25:54.612Z,1.90
2019-05-07T12:28:23.862Z,1.73
2019-05-07T12:31:02.094Z,2.03
2019-05-07T12:33:44.971Z,2.30
2019-05-07T12:36:14.331Z,1.93
2019-05-07T12:38:43.765Z,2.10
2019-05-07T12:41:33.756Z,2.30
2019-05-07T12:44:05.361Z,2.10
2019-05-07T12:46:34.580Z,2.00
2019-05-07T12:49:03.779Z,2.53
2019-05-07T12:51:38.019Z,2.00
2019-05-07T12:54:29.662Z,2.40
2019-05-07T12:56:58.878Z,2.10
2019-05-07T12:59:28.325Z,2.30
2019-05-07T13:02:26.861Z,2.00
2019-05-07T13:04:43.968Z,2.20
2019-05-07T13:07:33.060Z,2.60
2019-05-07T13:10:02.699Z,2.87
2019-05-07T13:12:32.177Z,2.30
2019-05-07T13:15:02.901Z,2.40
2019-05-07T13:17:31.040Z,2.53
2019-05-07T13:20:01.861Z,2.30
2019-05-07T13:22:29.635Z,2.37
2019-05-07T13:24:58.859Z,2.37
2019-05-07T13:27:28.128Z,2.70
2019-05-07T13:29:57.477Z,2.33
2019-05-07T13:32:26.745Z,2.50
2019-05-07T13:34:56.425Z,2.77
2019-05-07T13:37:26.525Z,2.80
2019-05-07T13:40:02.738Z,2.50
2019-05-07T13:42:45.885Z,3.07
2019-05-07T13:45:22.433Z,3.40
2019-05-07T13:47:56.284Z,2.45
2019-05-07T13:50:25.745Z,2.87
2019-05-07T13:52:55.800Z,2.60
2019-05-07T13:55:25.046Z,2.80
2019-05-07T13:57:54.268Z,3.10
2019-05-07T14:00:32.800Z,2.92
2019-05-07T14:03:03.211Z,2.83
2019-05-07T14:05:32.446Z,2.90
2019-05-07T14:08:04.211Z,2.87
2019-05-07T14:10:33.556Z,2.90
2019-05-07T14:13:08.530Z,2.57
2019-05-07T14:15:29.676Z,4.67
2019-05-07T14:17:59.007Z,3.40
2019-05-07T14:20:28.287Z,2.63
2019-05-07T14:22:57.656Z,3.00
2019-05-07T14:25:27.368Z,2.87
2019-05-07T14:27:58.830Z,2.80
2019-05-07T14:30:26.497Z,2.73
2019-05-07T14:33:01.656Z,2.50
2019-05-07T14:35:53.988Z,2.43
2019-05-07T14:38:28.918Z,3.13
2019-05-07T14:41:00.118Z,2.90
2019-05-07T14:43:49.308Z,2.90
2019-05-07T14:46:18.552Z,2.80
2019-05-07T14:48:47.889Z,2.60
2019-05-07T14:51:17.266Z,2.70
2019-05-07T14:53:46.494Z,2.50
2019-05-07T14:56:15.701Z,2.10
2019-05-07T14:58:45.015Z,2.30
2019-05-07T15:01:14.244Z,2.40
2019-05-07T15:03:43.505Z,2.50
2019-05-07T15:06:12.836Z,2.57
2019-05-07T15:08:42.866Z,2.63
2019-05-07T15:11:11.286Z,2.63
2019-05-07T15:13:42.632Z,2.60
2019-05-07T15:16:11.915Z,3.20
2019-05-07T15:18:48.219Z,2.73
2019-05-07T15:21:17.571Z,2.63
2019-05-07T15:23:47.397Z,3.23
2019-05-07T15:26:16.669Z,2.70
2019-05-07T15:28:46.855Z,2.93
2019-05-07T15:31:18.182Z,2.77
2019-05-07T15:33:47.448Z,2.80
2019-05-07T15:36:16.689Z,2.75
2019-05-07T15:38:45.922Z,3.13
2019-05-07T15:41:15.157Z,2.67
2019-05-07T15:43:46.189Z,2.67
2019-05-07T15:46:13.771Z,2.63
2019-05-07T15:48:43.023Z,2.90
2019-05-07T15:51:12.275Z,2.27
2019-05-07T15:53:49.381Z,3.60
2019-05-07T15:56:18.615Z,3.37
2019-05-07T15:58:47.828Z,2.97
2019-05-07T16:01:17.126Z,2.90
2019-05-07T16:03:46.689Z,3.27
2019-05-07T16:06:15.922Z,2.97
2019-05-07T16:08:49.223Z,2.77
2019-05-07T16:11:17.063Z,2.80
2019-05-07T16:14:08.049Z,2.77
2019-05-07T16:16:38.373Z,3.23
2019-05-07T16:19:12.248Z,2.87
2019-05-07T16:21:39.575Z,2.63
2019-05-07T16:24:08.813Z,3.17
2019-05-07T16:26:38.223Z,3.00
2019-05-07T16:29:07.419Z,3.10
2019-05-07T16:31:36.732Z,3.13
2019-05-07T16:34:05.944Z,3.20
2019-05-07T16:36:35.193Z,3.40
2019-05-07T16:39:05.611Z,2.47
2019-05-07T16:41:34.921Z,3.07
2019-05-07T16:44:04.511Z,3.03
2019-05-07T16:46:33.837Z,2.60
2019-05-07T16:49:03.033Z,2.97
2019-05-07T16:51:33.066Z,3.07
2019-05-07T16:54:03.398Z,2.70
2019-05-07T16:56:33.148Z,2.80
2019-05-07T16:59:07.458Z,3.00
2019-05-07T17:01:34.089Z,2.83
2019-05-07T17:04:03.278Z,3.00
2019-05-07T17:06:32.541Z,2.60
2019-05-07T17:09:06.247Z,2.83
2019-05-07T17:11:35.485Z,2.73
2019-05-07T17:14:04.883Z,2.47
2019-05-07T17:16:34.120Z,2.40
2019-05-07T17:19:03.320Z,2.47
2019-05-07T17:21:32.665Z,3.00
2019-05-07T17:24:02.583Z,2.80
2019-05-07T17:26:31.072Z,2.70
2019-05-07T17:29:02.503Z,2.50
2019-05-07T17:31:31.711Z,2.53
2019-05-07T17:33:58.849Z,2.40
2019-05-07T17:36:28.076Z,2.60
2019-05-07T17:38:57.337Z,3.83
2019-05-07T17:41:27.455Z,3.30
2019-05-07T17:43:55.939Z,3.60
2019-05-07T17:46:25.257Z,3.70
2019-05-07T17:48:54.541Z,3.60
2019-05-07T17:51:42.885Z,3.87
2019-05-07T17:54:13.329Z,5.37
2019-05-07T17:56:42.378Z,4.13
2019-05-07T17:59:12.197Z,4.17
2019-05-07T18:02:02.545Z,3.93
2019-05-07T18:04:36.518Z,3.90
2019-05-07T18:07:03.026Z,4.27
2019-05-07T18:09:31.876Z,4.13
2019-05-07T18:12:00.041Z,3.83
2019-05-07T18:14:29.230Z,4.27
2019-05-07T18:17:12.560Z,4.30
2019-05-07T18:19:41.136Z,4.60
2019-05-07T18:22:12.661Z,4.30
2019-05-07T18:24:39.579Z,4.37
2019-05-07T18:27:08.911Z,4.53
2019-05-07T18:29:38.138Z,4.40
2019-05-07T18:32:07.379Z,4.53
2019-05-07T18:34:36.632Z,4.20
2019-05-07T18:37:05.842Z,5.60
2019-05-07T18:39:35.077Z,4.37
2019-05-07T18:42:04.353Z,3.90
2019-05-07T18:44:33.598Z,5.30
2019-05-07T18:47:02.831Z,5.10
2019-05-07T18:49:32.086Z,4.47
2019-05-07T18:52:02.927Z,4.40
2019-05-07T18:54:31.537Z,4.80
2019-05-07T18:56:59.836Z,4.00
2019-05-07T18:59:29.050Z,4.00
2019-05-07T19:01:58.254Z,3.90
2019-05-07T19:04:30.116Z,3.87
2019-05-07T19:06:56.799Z,3.97
2019-05-07T19:09:26.029Z,4.37
2019-05-07T19:11:55.230Z,3.60
2019-05-07T19:14:24.568Z,4.47
2019-05-07T19:16:53.842Z,4.47
2019-05-07T19:19:23.158Z,4.13
2019-05-07T19:21:53.054Z,4.20
2019-05-07T19:24:25.518Z,3.77
2019-05-07T19:27:03.392Z,3.83
2019-05-07T19:29:49.298Z,3.93
2019-05-07T19:32:18.652Z,8.23
2019-05-07T19:34:47.923Z,18.00
2019-05-07T19:37:17.124Z,6.23
2019-05-07T19:39:46.455Z,4.80
2019-05-07T19:42:15.678Z,4.37
2019-05-07T19:44:44.962Z,4.53
2019-05-07T19:47:14.232Z,4.23
2019-05-07T19:49:43.591Z,4.20
2019-05-07T19:52:12.843Z,4.07
2019-05-07T19:54:44.341Z,5.23
2019-05-07T19:57:11.988Z,4.93
2019-05-07T19:59:42.879Z,4.83
2019-05-07T20:02:12.271Z,4.63
2019-05-07T20:04:42.643Z,4.30
2019-05-07T20:07:09.606Z,6.50
2019-05-07T20:09:38.889Z,5.73
2019-05-07T20:12:08.223Z,5.30
2019-05-07T20:14:37.399Z,4.70
2019-05-07T20:17:06.662Z,5.00
2019-05-07T20:19:35.959Z,4.70
2019-05-07T20:22:05.179Z,5.07
2019-05-07T20:24:34.583Z,5.37
2019-05-07T20:27:03.864Z,4.93
2019-05-07T20:29:33.294Z,4.87
2019-05-07T20:32:02.998Z,4.90
2019-05-07T20:34:33.333Z,5.77
2019-05-07T20:37:02.133Z,5.10
2019-05-07T20:39:32.244Z,5.47
2019-05-07T20:42:03.679Z,4.70
2019-05-07T20:44:32.326Z,5.20
2019-05-07T20:47:01.796Z,5.63
2019-05-07T20:49:31.890Z,5.27
2019-05-07T20:51:59.481Z,5.23
2019-05-07T20:54:35.240Z,5.10
2019-05-07T20:57:13.182Z,5.00
2019-05-07T20:59:40.880Z,5.33
2019-05-07T21:02:11.856Z,4.93
2019-05-07T21:04:39.470Z,5.03
2019-05-07T21:07:11.547Z,5.43
2019-05-07T21:09:37.976Z,6.00
2019-05-07T21:12:07.268Z,5.03
2019-05-07T21:14:36.509Z,5.27
2019-05-07T21:17:06.015Z,5.17
2019-05-07T21:19:35.258Z,5.17
2019-05-07T21:22:04.455Z,4.87
2019-05-07T21:24:33.658Z,6.07
2019-05-07T21:27:02.977Z,5.37
2019-05-07T21:29:32.779Z,5.10
2019-05-07T21:32:03.339Z,5.40
2019-05-07T21:34:31.771Z,5.13
2019-05-07T21:36:59.881Z,5.17
2019-05-07T21:39:29.184Z,5.37
2019-05-07T21:41:58.482Z,5.00
2019-05-07T21:44:27.780Z,5.50
2019-05-07T21:46:56.980Z,9.53
2019-05-07T21:49:26.262Z,6.30
2019-05-07T21:51:55.570Z,5.70
2019-05-07T21:54:32.382Z,5.30
2019-05-07T21:57:07.535Z,5.23
2019-05-07T21:59:36.732Z,5.67
2019-05-07T22:02:12.622Z,4.80
2019-05-07T22:04:42.161Z,5.47
2019-05-07T22:07:12.069Z,5.60
2019-05-07T22:09:38.900Z,5.33
2019-05-07T22:12:08.138Z,5.57
2019-05-07T22:14:37.332Z,5.80
2019-05-07T22:17:06.603Z,5.73
2019-05-07T22:19:35.902Z,5.40
2019-05-07T22:22:05.176Z,5.33
2019-05-07T22:24:34.388Z,5.57
2019-05-07T22:27:04.247Z,5.47
2019-05-07T22:29:32.881Z,5.80
2019-05-07T22:32:29.755Z,5.97
2019-05-07T22:35:07.490Z,6.40
2019-05-07T22:37:36.701Z,5.77
2019-05-07T22:40:05.936Z,6.53
2019-05-07T22:42:35.240Z,6.77
2019-05-07T22:45:04.752Z,6.80
2019-05-07T22:47:34.029Z,5.60
2019-05-07T22:50:03.476Z,6.13
2019-05-07T22:52:32.795Z,6.30
2019-05-07T22:55:01.966Z,6.03
2019-05-07T22:57:58.982Z,5.97
2019-05-07T23:00:39.326Z,5.80
2019-05-07T23:03:08.598Z,6.40
2019-05-07T23:05:37.841Z,5.93
2019-05-07T23:08:07.076Z,6.40
2019-05-07T23:10:36.366Z,6.50
2019-05-07T23:13:05.628Z,5.77
2019-05-07T23:15:34.877Z,6.00
2019-05-07T23:18:04.533Z,6.53
2019-05-07T23:20:33.483Z,6.40
2019-05-07T23:23:02.758Z,6.37
2019-05-07T23:25:32.352Z,6.13
2019-05-07T23:28:04.909Z,6.00
2019-05-07T23:30:32.964Z,6.13
2019-05-07T23:33:02.023Z,6.60
2019-05-07T23:35:29.400Z,6.50
2019-05-07T23:37:58.970Z,5.70
2019-05-07T23:40:47.230Z,6.83
2019-05-07T23:43:16.484Z,6.37
2019-05-07T23:45:45.728Z,6.47
2019-05-07T23:48:14.988Z,7.33
2019-05-07T23:50:44.428Z,5.80
2019-05-07T23:53:13.730Z,6.17
2019-05-07T23:55:43.029Z,6.47
2019-05-07T23:58:14.163Z,6.63
